Time,TemperatureF,DewpointF,PressureIn,WindDirection,WindDirectionDegrees,WindSpeedMPH,WindSpeedGustMPH,Humidity,HourlyPrecipIn,Conditions,Clouds,dailyrainin,SoftwareType,DateUTC
2013-05-07 00:01:00,71.3,62.9,30.00,West,270,0.7,1.3,75,0.00,,,0.00,WUHU216HW,2013-05-07 04:01:00,
2013-05-07 00:03:00,71.3,62.9,30.00,WNW,293,0.2,1.3,75,0.00,,,0.00,WUHU216HW,2013-05-07 04:03:00,
2013-05-07 00:08:00,71.1,62.7,30.00,NW,315,0.4,0.7,75,0.00,,,0.00,WUHU216HW,2013-05-07 04:08:00,
2013-05-07 00:13:00,70.9,62.6,30.00,NW,315,0.4,1.3,75,0.00,,,0.00,WUHU216HW,2013-05-07 04:13:00,
2013-05-07 00:18:00,70.9,62.6,30.00,NW,315,0.4,1.3,75,0.00,,,0.00,WUHU216HW,2013-05-07 04:18:00,
2013-05-07 00:23:00,70.9,62.6,30.00,North,0,0.4,0.9,75,0.00,,,0.00,WUHU216HW,2013-05-07 04:23:00,
2013-05-07 00:28:00,70.9,62.6,29.99,West,270,1.1,1.1,75,0.00,,,0.00,WUHU216HW,2013-05-07 04:28:00,
2013-05-07 00:33:00,70.9,62.6,29.99,WNW,293,0.0,1.6,75,0.00,,,0.00,WUHU216HW,2013-05-07 04:33:00,
2013-05-07 00:38:00,70.9,62.6,29.99,WNW,293,0.0,1.6,75,0.00,,,0.00,WUHU216HW,2013-05-07 04:38:00,
2013-05-07 00:44:00,70.9,62.6,29.99,WNW,293,0.4,1.1,75,0.00,,,0.00,WUHU216HW,2013-05-07 04:44:00,
2013-05-07 00:49:00,70.9,62.6,29.99,WNW,293,0.4,1.6,75,0.00,,,0.00,WUHU216HW,2013-05-07 04:49:00,
2013-05-07 00:54:00,70.9,62.6,29.99,WNW,293,0.0,1.6,75,0.00,,,0.00,WUHU216HW,2013-05-07 04:54:00,
2013-05-07 00:59:00,70.9,62.6,29.99,WNW,293,0.0,0.7,75,0.00,,,0.00,WUHU216HW,2013-05-07 04:59:00,
2013-05-07 01:04:00,70.9,62.6,29.99,WNW,293,0.0,0.4,75,0.00,,,0.00,WUHU216HW,2013-05-07 05:04:00,
2013-05-07 01:09:00,70.9,62.6,29.99,SSE,158,0.7,0.7,75,0.00,,,0.00,WUHU216HW,2013-05-07 05:09:00,
2013-05-07 01:14:00,70.7,62.4,29.99,SSE,158,0.7,0.7,75,0.00,,,0.00,WUHU216HW,2013-05-07 05:14:00,
2013-05-07 01:19:00,70.6,62.2,29.99,SSE,158,0.2,0.7,75,0.00,,,0.00,WUHU216HW,2013-05-07 05:19:00,
2013-05-07 01:25:00,70.4,62.0,29.98,SSE,158,0.4,0.7,75,0.00,,,0.00,WUHU216HW,2013-05-07 05:25:00,
2013-05-07 01:30:00,70.2,61.8,29.98,SSE,158,0.7,0.7,75,0.00,,,0.00,WUHU216HW,2013-05-07 05:30:00,
2013-05-07 01:35:00,70.2,61.8,29.98,SSE,158,0.2,0.7,75,0.00,,,0.00,WUHU216HW,2013-05-07 05:35:00,
2013-05-07 01:40:00,70.0,62.0,29.98,SSE,158,0.0,0.4,76,0.00,,,0.00,WUHU216HW,2013-05-07 05:40:00,
2013-05-07 01:45:00,69.8,61.8,29.98,SSE,158,0.0,0.0,76,0.00,,,0.00,WUHU216HW,2013-05-07 05:45:00,
2013-05-07 01:50:00,69.7,62.1,29.98,SSE,158,0.0,0.0,77,0.00,,,0.00,WUHU216HW,2013-05-07 05:50:00,
2013-05-07 01:55:00,69.5,61.9,29.98,SSE,158,0.0,0.0,77,0.00,,,0.00,WUHU216HW,2013-05-07 05:55:00,
2013-05-07 02:00:00,69.5,61.9,29.97,SSE,158,0.0,0.0,77,0.00,,,0.00,WUHU216HW,2013-05-07 06:00:00,
2013-05-07 02:06:00,69.3,62.1,29.97,SSE,158,0.0,0.0,78,0.00,,,0.00,WUHU216HW,2013-05-07 06:06:00,
2013-05-07 02:11:00,69.1,61.9,29.97,SSE,158,0.0,0.0,78,0.00,,,0.00,WUHU216HW,2013-05-07 06:11:00,
2013-05-07 02:16:00,69.1,61.9,29.97,SSE,158,0.0,0.0,78,0.00,,,0.00,WUHU216HW,2013-05-07 06:16:00,
2013-05-07 02:21:00,69.1,61.9,29.96,SSE,158,0.0,0.0,78,0.00,,,0.00,WUHU216HW,2013-05-07 06:21:00,
2013-05-07 02:34:00,69.1,61.9,29.97,NW,315,0.4,0.4,78,0.00,,,0.00,WUHU216HW,2013-05-07 06:34:00,
2013-05-07 02:39:00,69.3,62.1,29.96,NW,315,0.0,0.4,78,0.00,,,0.00,WUHU216HW,2013-05-07 06:39:00,
2013-05-07 02:44:00,69.3,62.1,29.96,West,270,0.0,0.0,78,0.00,,,0.00,WUHU216HW,2013-05-07 06:44:00,
2013-05-07 02:49:00,69.3,62.1,29.96,WSW,248,0.0,0.2,78,0.00,,,0.00,WUHU216HW,2013-05-07 06:49:00,
2013-05-07 02:54:00,69.5,62.3,29.96,WSW,248,0.2,0.4,78,0.00,,,0.00,WUHU216HW,2013-05-07 06:54:00,
2013-05-07 02:59:00,69.5,62.3,29.96,WSW,248,1.1,1.1,78,0.00,,,0.00,WUHU216HW,2013-05-07 06:59:00,
2013-05-07 03:04:00,69.5,62.3,29.97,WSW,248,0.0,1.1,78,0.00,,,0.00,WUHU216HW,2013-05-07 07:04:00,
2013-05-07 03:10:00,69.5,62.3,29.96,WSW,248,0.0,0.4,78,0.00,,,0.00,WUHU216HW,2013-05-07 07:10:00,
2013-05-07 03:15:00,69.5,62.3,29.96,WNW,293,0.0,0.4,78,0.00,,,0.00,WUHU216HW,2013-05-07 07:15:00,
2013-05-07 03:20:00,69.5,62.3,29.96,WNW,293,0.0,0.4,78,0.00,,,0.00,WUHU216HW,2013-05-07 07:20:00,
2013-05-07 03:25:00,69.5,62.3,29.96,WNW,293,0.0,0.7,78,0.00,,,0.00,WUHU216HW,2013-05-07 07:25:00,
2013-05-07 03:30:00,69.5,62.3,29.96,NNE,23,0.2,0.7,78,0.00,,,0.00,WUHU216HW,2013-05-07 07:30:00,
2013-05-07 03:35:00,69.5,62.6,29.96,ENE,68,0.4,0.7,79,0.00,,,0.00,WUHU216HW,2013-05-07 07:35:00,
2013-05-07 03:40:00,69.3,62.5,29.96,East,90,0.4,0.7,79,0.00,,,0.00,WUHU216HW,2013-05-07 07:40:00,
2013-05-07 03:45:00,69.1,61.9,29.96,East,90,0.0,0.7,78,0.00,,,0.00,WUHU216HW,2013-05-07 07:45:00,
2013-05-07 03:50:00,69.1,61.9,29.96,East,90,0.0,0.4,78,0.00,,,0.00,WUHU216HW,2013-05-07 07:50:00,
2013-05-07 03:56:00,68.9,61.8,29.96,NE,45,1.1,1.1,78,0.00,,,0.00,WUHU216HW,2013-05-07 07:56:00,
2013-05-07 04:01:00,68.8,62.0,29.96,North,0,0.9,1.1,79,0.00,,,0.00,WUHU216HW,2013-05-07 08:01:00,
2013-05-07 04:06:00,68.8,62.0,29.96,North,0,0.4,1.1,79,0.00,,,0.00,WUHU216HW,2013-05-07 08:06:00,
2013-05-07 04:11:00,68.8,62.0,29.96,NNE,23,1.1,1.1,79,0.00,,,0.00,WUHU216HW,2013-05-07 08:11:00,
2013-05-07 04:16:00,68.8,62.0,29.96,ESE,113,0.7,1.3,79,0.00,,,0.00,WUHU216HW,2013-05-07 08:16:00,
2013-05-07 04:21:00,68.4,61.7,29.97,NE,45,1.3,1.8,79,0.00,,,0.00,WUHU216HW,2013-05-07 08:21:00,
2013-05-07 04:26:00,67.9,61.2,29.97,NE,45,1.6,1.8,79,0.00,,,0.00,WUHU216HW,2013-05-07 08:26:00,
2013-05-07 04:31:00,67.7,61.0,29.97,North,0,0.0,1.6,79,0.00,,,0.00,WUHU216HW,2013-05-07 08:31:00,
2013-05-07 04:36:00,67.7,61.0,29.97,NNE,23,0.4,1.3,79,0.00,,,0.00,WUHU216HW,2013-05-07 08:36:00,
2013-05-07 04:42:00,67.3,60.3,29.97,ESE,113,0.7,2.9,78,0.00,,,0.00,WUHU216HW,2013-05-07 08:42:00,
2013-05-07 04:47:00,67.0,60.0,29.97,NNE,23,1.1,2.9,78,0.00,,,0.00,WUHU216HW,2013-05-07 08:47:00,
2013-05-07 04:52:00,66.8,59.8,29.97,NNE,23,0.7,1.3,78,0.00,,,0.00,WUHU216HW,2013-05-07 08:52:00,
2013-05-07 04:57:00,66.6,59.6,29.97,NNW,338,1.1,1.1,78,0.00,,,0.00,WUHU216HW,2013-05-07 08:57:00,
2013-05-07 05:02:00,66.6,59.6,29.97,NE,45,1.1,1.8,78,0.00,,,0.00,WUHU216HW,2013-05-07 09:02:00,
2013-05-07 05:07:00,66.6,59.6,29.97,East,90,0.2,2.5,78,0.00,,,0.00,WUHU216HW,2013-05-07 09:07:00,
2013-05-07 05:12:00,66.6,59.6,29.97,ENE,68,1.8,2.5,78,0.00,,,0.00,WUHU216HW,2013-05-07 09:12:00,
2013-05-07 05:17:00,66.6,59.1,29.97,NNE,23,1.1,2.0,77,0.00,,,0.00,WUHU216HW,2013-05-07 09:17:00,
2013-05-07 05:22:00,66.2,59.2,29.97,ESE,113,0.2,2.2,78,0.00,,,0.00,WUHU216HW,2013-05-07 09:22:00,
2013-05-07 05:28:00,66.2,59.2,29.98,NE,45,0.0,2.2,78,0.00,,,0.00,WUHU216HW,2013-05-07 09:28:00,
2013-05-07 05:33:00,66.4,59.4,29.98,ENE,68,0.4,0.9,78,0.00,,,0.00,WUHU216HW,2013-05-07 09:33:00,
2013-05-07 05:38:00,66.4,59.4,29.98,NNE,23,0.2,0.9,78,0.00,,,0.00,WUHU216HW,2013-05-07 09:38:00,
2013-05-07 05:43:00,66.4,59.4,29.98,NNE,23,0.2,1.1,78,0.00,,,0.00,WUHU216HW,2013-05-07 09:43:00,
2013-05-07 05:48:00,66.4,59.4,29.98,North,0,0.9,1.1,78,0.00,,,0.00,WUHU216HW,2013-05-07 09:48:00,
2013-05-07 05:53:00,66.2,59.2,29.98,NNE,23,1.3,1.3,78,0.00,,,0.00,WUHU216HW,2013-05-07 09:53:00,
2013-05-07 05:58:00,66.2,59.2,29.98,NE,45,2.2,2.2,78,0.00,,,0.00,WUHU216HW,2013-05-07 09:58:00,
2013-05-07 06:03:00,66.2,59.2,29.98,NE,45,0.0,2.2,78,0.00,,,0.00,WUHU216HW,2013-05-07 10:03:00,
2013-05-07 06:09:00,66.2,59.2,29.98,ENE,68,0.0,1.1,78,0.00,,,0.00,WUHU216HW,2013-05-07 10:09:00,
2013-05-07 06:14:00,66.2,59.2,29.98,NNE,23,0.0,1.3,78,0.00,,,0.00,WUHU216HW,2013-05-07 10:14:00,
2013-05-07 06:19:00,65.9,58.5,29.99,NE,45,1.1,1.3,77,0.00,,,0.00,WUHU216HW,2013-05-07 10:19:00,
2013-05-07 06:24:00,65.9,58.5,29.99,North,0,0.4,1.1,77,0.00,,,0.00,WUHU216HW,2013-05-07 10:24:00,
2013-05-07 06:29:00,65.7,58.3,29.99,North,0,1.3,1.3,77,0.00,,,0.00,WUHU216HW,2013-05-07 10:29:00,
2013-05-07 06:35:00,65.7,58.7,29.99,NNE,23,0.0,1.6,78,0.00,,,0.00,WUHU216HW,2013-05-07 10:35:00,
2013-05-07 06:40:00,65.7,58.7,29.99,ESE,113,0.9,1.1,78,0.00,,,0.00,WUHU216HW,2013-05-07 10:40:00,
2013-05-07 06:45:00,65.7,58.7,29.99,ESE,113,0.9,1.1,78,0.00,,,0.00,WUHU216HW,2013-05-07 10:45:00,
2013-05-07 06:50:00,65.9,58.9,29.99,ESE,113,0.0,1.1,78,0.00,,,0.00,WUHU216HW,2013-05-07 10:50:00,
2013-05-07 06:55:00,65.7,58.7,29.99,ESE,113,0.0,0.4,78,0.00,,,0.00,WUHU216HW,2013-05-07 10:55:00,
2013-05-07 07:00:00,65.5,58.9,29.99,NNE,23,0.0,0.7,79,0.00,,,0.00,WUHU216HW,2013-05-07 11:00:00,
2013-05-07 07:05:00,65.5,58.5,30.00,ENE,68,0.0,0.7,78,0.00,,,0.00,WUHU216HW,2013-05-07 11:05:00,
2013-05-07 07:10:00,65.5,58.5,30.00,NE,45,0.2,0.7,78,0.00,,,0.00,WUHU216HW,2013-05-07 11:10:00,
2013-05-07 07:15:00,65.3,58.3,30.00,East,90,0.4,0.9,78,0.00,,,0.00,WUHU216HW,2013-05-07 11:15:00,
2013-05-07 07:20:00,65.5,58.9,30.01,ESE,113,0.4,1.1,79,0.00,,,0.00,WUHU216HW,2013-05-07 11:20:00,
2013-05-07 07:26:00,65.5,58.9,30.00,North,0,1.1,1.1,79,0.00,,,0.00,WUHU216HW,2013-05-07 11:26:00,
2013-05-07 07:31:00,65.2,58.5,30.00,NE,45,0.9,2.2,79,0.00,,,0.00,WUHU216HW,2013-05-07 11:31:00,
2013-05-07 07:36:00,65.0,58.3,30.01,NE,45,2.0,2.2,79,0.00,,,0.00,WUHU216HW,2013-05-07 11:36:00,
2013-05-07 07:41:00,65.0,58.3,30.01,ENE,68,0.0,2.2,79,0.00,,,0.00,WUHU216HW,2013-05-07 11:41:00,
2013-05-07 07:46:00,65.2,58.5,30.01,ENE,68,0.0,1.1,79,0.00,,,0.00,WUHU216HW,2013-05-07 11:46:00,
2013-05-07 07:51:00,65.3,58.3,30.01,SE,135,0.4,1.1,78,0.00,,,0.00,WUHU216HW,2013-05-07 11:51:00,
2013-05-07 07:56:00,65.5,58.5,30.01,NE,45,2.5,2.7,78,0.00,,,0.00,WUHU216HW,2013-05-07 11:56:00,
2013-05-07 08:01:00,65.7,58.7,30.02,NNE,23,1.1,2.7,78,0.00,,,0.00,WUHU216HW,2013-05-07 12:01:00,
2013-05-07 08:07:00,65.9,58.9,30.02,NE,45,0.9,1.1,78,0.00,,,0.00,WUHU216HW,2013-05-07 12:07:00,
2013-05-07 08:12:00,65.9,58.5,30.02,NE,45,1.1,1.3,77,0.00,,,0.00,WUHU216HW,2013-05-07 12:12:00,
2013-05-07 08:17:00,65.9,58.9,30.02,East,90,0.4,1.3,78,0.00,,,0.00,WUHU216HW,2013-05-07 12:17:00,
2013-05-07 08:22:00,66.1,58.6,30.02,ESE,113,3.8,3.8,77,0.00,,,0.00,WUHU216HW,2013-05-07 12:22:00,
2013-05-07 08:27:00,66.2,58.8,30.02,NE,45,1.1,3.8,77,0.00,,,0.00,WUHU216HW,2013-05-07 12:27:00,
2013-05-07 08:32:00,66.4,59.0,30.02,North,0,1.8,2.9,77,0.00,,,0.00,WUHU216HW,2013-05-07 12:32:00,
2013-05-07 08:37:00,66.6,59.1,30.02,ENE,68,0.4,2.0,77,0.00,,,0.00,WUHU216HW,2013-05-07 12:37:00,
2013-05-07 08:42:00,66.6,59.1,30.02,NE,45,1.8,2.0,77,0.00,,,0.00,WUHU216HW,2013-05-07 12:42:00,
2013-05-07 08:48:00,67.0,59.5,30.03,ENE,68,1.8,2.5,77,0.00,,,0.00,WUHU216HW,2013-05-07 12:48:00,
2013-05-07 08:53:00,67.0,59.1,30.03,NNE,23,0.4,3.4,76,0.00,,,0.00,WUHU216HW,2013-05-07 12:53:00,
2013-05-07 08:58:00,67.1,59.3,30.03,ESE,113,2.5,3.4,76,0.00,,,0.00,WUHU216HW,2013-05-07 12:58:00,
2013-05-07 09:03:00,67.7,59.9,30.03,ENE,68,1.3,3.4,76,0.00,,,0.00,WUHU216HW,2013-05-07 13:03:00,
2013-05-07 09:08:00,67.7,60.2,30.03,ENE,68,2.7,2.7,77,0.00,,,0.00,WUHU216HW,2013-05-07 13:08:00,
2013-05-07 09:13:00,68.0,60.2,30.03,NNE,23,0.4,2.7,76,0.00,,,0.00,WUHU216HW,2013-05-07 13:13:00,
2013-05-07 09:18:00,68.4,60.6,30.03,ESE,113,0.4,1.8,76,0.00,,,0.00,WUHU216HW,2013-05-07 13:18:00,
2013-05-07 09:23:00,68.9,61.0,30.03,ESE,113,2.5,2.5,76,0.00,,,0.00,WUHU216HW,2013-05-07 13:23:00,
2013-05-07 09:28:00,69.5,61.1,30.03,SE,135,0.4,2.5,75,0.00,,,0.00,WUHU216HW,2013-05-07 13:28:00,
2013-05-07 09:33:00,70.2,61.5,30.03,NE,45,0.9,1.6,74,0.00,,,0.00,WUHU216HW,2013-05-07 13:33:00,
2013-05-07 09:39:00,70.4,61.7,30.03,North,0,1.8,1.8,74,0.00,,,0.00,WUHU216HW,2013-05-07 13:39:00,
2013-05-07 09:44:00,70.6,61.8,30.03,SE,135,0.7,1.8,74,0.00,,,0.00,WUHU216HW,2013-05-07 13:44:00,
2013-05-07 09:49:00,71.1,62.4,30.03,ESE,113,1.6,1.8,74,0.00,,,0.00,WUHU216HW,2013-05-07 13:49:00,
2013-05-07 09:54:00,71.8,62.7,30.03,SSE,158,0.7,1.8,73,0.00,,,0.00,WUHU216HW,2013-05-07 13:54:00,
2013-05-07 10:00:00,72.0,62.9,30.03,SSE,158,0.4,0.7,73,0.00,,,0.00,WUHU216HW,2013-05-07 14:00:00,
2013-05-07 10:05:00,72.9,64.2,30.03,WSW,248,0.9,2.2,74,0.00,,,0.00,WUHU216HW,2013-05-07 14:05:00,
2013-05-07 10:10:00,73.1,64.0,30.04,NNW,338,1.6,2.2,73,0.00,,,0.00,WUHU216HW,2013-05-07 14:10:00,
2013-05-07 10:15:00,73.6,64.4,30.04,West,270,0.7,2.5,73,0.00,,,0.00,WUHU216HW,2013-05-07 14:15:00,
2013-05-07 10:20:00,73.8,64.6,30.03,SE,135,0.7,2.5,73,0.00,,,0.00,WUHU216HW,2013-05-07 14:20:00,
2013-05-07 10:31:00,74.7,64.7,30.03,NNW,338,2.5,2.5,71,0.00,,,0.00,WUHU216HW,2013-05-07 14:31:00,
2013-05-07 10:36:00,74.7,64.7,30.04,NW,315,1.8,2.5,71,0.00,,,0.00,WUHU216HW,2013-05-07 14:36:00,
2013-05-07 10:41:00,74.9,64.9,30.04,NNW,338,0.4,3.1,71,0.00,,,0.00,WUHU216HW,2013-05-07 14:41:00,
2013-05-07 10:46:00,75.4,65.0,30.04,SSW,203,0.4,3.1,70,0.00,,,0.00,WUHU216HW,2013-05-07 14:46:00,
2013-05-07 10:51:00,76.0,65.5,30.04,North,0,2.7,2.7,70,0.00,,,0.00,WUHU216HW,2013-05-07 14:51:00,
2013-05-07 10:56:00,76.0,65.1,30.04,West,270,2.9,3.8,69,0.00,,,0.00,WUHU216HW,2013-05-07 14:56:00,
2013-05-07 11:02:00,76.0,64.6,30.04,SSW,203,2.5,3.8,68,0.00,,,0.00,WUHU216HW,2013-05-07 15:02:00,
2013-05-07 11:07:00,76.5,65.6,30.04,SSW,203,1.6,3.4,69,0.00,,,0.00,WUHU216HW,2013-05-07 15:07:00,
2013-05-07 11:12:00,77.2,65.9,30.04,SSW,203,1.3,3.1,68,0.00,,,0.00,WUHU216HW,2013-05-07 15:12:00,
2013-05-07 11:17:00,78.1,66.7,30.04,SW,225,0.7,3.1,68,0.00,,,0.00,WUHU216HW,2013-05-07 15:17:00,
2013-05-07 11:22:00,78.5,66.2,30.04,North,0,0.4,2.9,66,0.00,,,0.00,WUHU216HW,2013-05-07 15:22:00,
2013-05-07 11:27:00,78.7,66.3,30.04,West,270,1.8,3.4,66,0.00,,,0.00,WUHU216HW,2013-05-07 15:27:00,
2013-05-07 11:32:00,78.7,66.3,30.04,SE,135,1.1,3.4,66,0.00,,,0.00,WUHU216HW,2013-05-07 15:32:00,
2013-05-07 11:37:00,78.7,66.3,30.04,East,90,1.8,3.4,66,0.00,,,0.00,WUHU216HW,2013-05-07 15:37:00,
2013-05-07 11:43:00,78.5,65.7,30.05,NNW,338,1.1,2.9,65,0.00,,,0.00,WUHU216HW,2013-05-07 15:43:00,
2013-05-07 11:48:00,78.7,66.3,30.05,NW,315,2.7,4.3,66,0.00,,,0.00,WUHU216HW,2013-05-07 15:48:00,
2013-05-07 11:53:00,78.8,66.5,30.05,WSW,248,2.0,4.3,66,0.00,,,0.00,WUHU216HW,2013-05-07 15:53:00,
2013-05-07 11:58:00,78.8,66.5,30.04,WSW,248,1.1,4.0,66,0.00,,,0.00,WUHU216HW,2013-05-07 15:58:00,
2013-05-07 12:03:00,79.0,66.3,30.04,SW,225,1.3,4.0,65,0.00,,,0.00,WUHU216HW,2013-05-07 16:03:00,
2013-05-07 12:08:00,79.4,66.6,30.04,WNW,293,2.7,3.4,65,0.00,,,0.00,WUHU216HW,2013-05-07 16:08:00,
2013-05-07 12:13:00,79.4,66.2,30.04,West,270,2.0,3.1,64,0.00,,,0.00,WUHU216HW,2013-05-07 16:13:00,
2013-05-07 12:18:00,79.0,66.3,30.04,NNW,338,1.8,3.1,65,0.00,,,0.00,WUHU216HW,2013-05-07 16:18:00,
2013-05-07 12:23:00,79.0,65.8,30.04,WNW,293,1.6,3.6,64,0.00,,,0.00,WUHU216HW,2013-05-07 16:23:00,
2013-05-07 12:29:00,79.0,65.8,30.04,SW,225,2.0,3.6,64,0.00,,,0.00,WUHU216HW,2013-05-07 16:29:00,
2013-05-07 12:34:00,78.8,65.6,30.04,NW,315,1.1,3.4,64,0.00,,,0.00,WUHU216HW,2013-05-07 16:34:00,
2013-05-07 12:39:00,79.0,66.3,30.04,NW,315,7.4,7.4,65,0.00,,,0.00,WUHU216HW,2013-05-07 16:39:00,
2013-05-07 12:44:00,79.2,66.0,30.04,SW,225,2.5,7.4,64,0.00,,,0.00,WUHU216HW,2013-05-07 16:44:00,
2013-05-07 12:49:00,79.2,66.0,30.04,West,270,1.1,4.0,64,0.00,,,0.00,WUHU216HW,2013-05-07 16:49:00,
2013-05-07 12:54:00,79.2,66.0,30.03,NNW,338,0.4,4.7,64,0.00,,,0.00,WUHU216HW,2013-05-07 16:54:00,
2013-05-07 12:59:00,79.4,65.7,30.03,NW,315,2.5,6.9,63,0.00,,,0.00,WUHU216HW,2013-05-07 16:59:00,
2013-05-07 13:04:00,79.7,66.5,30.03,WNW,293,1.1,6.9,64,0.00,,,0.00,WUHU216HW,2013-05-07 17:04:00,
2013-05-07 13:09:00,80.1,66.3,30.03,West,270,4.3,4.3,63,0.00,,,0.00,WUHU216HW,2013-05-07 17:09:00,
2013-05-07 13:15:00,80.1,66.3,30.03,WSW,248,1.1,4.3,63,0.00,,,0.00,WUHU216HW,2013-05-07 17:15:00,
2013-05-07 13:20:00,80.3,66.5,30.03,West,270,1.3,3.1,63,0.00,,,0.00,WUHU216HW,2013-05-07 17:20:00,
2013-05-07 13:25:00,80.5,66.7,30.03,SW,225,3.4,3.4,63,0.00,,,0.00,WUHU216HW,2013-05-07 17:25:00,
2013-05-07 13:30:00,80.8,67.1,30.03,NNW,338,1.1,3.4,63,0.00,,,0.00,WUHU216HW,2013-05-07 17:30:00,
2013-05-07 13:35:00,81.0,66.8,30.03,SW,225,1.3,3.1,62,0.00,,,0.00,WUHU216HW,2013-05-07 17:35:00,
2013-05-07 13:40:00,80.8,66.6,30.03,NNE,23,0.4,3.1,62,0.00,,,0.00,WUHU216HW,2013-05-07 17:40:00,
2013-05-07 13:45:00,80.8,66.6,30.03,South,180,2.2,3.6,62,0.00,,,0.00,WUHU216HW,2013-05-07 17:45:00,
2013-05-07 13:50:00,81.0,66.3,30.03,West,270,4.0,6.9,61,0.00,,,0.00,WUHU216HW,2013-05-07 17:50:00,
2013-05-07 13:55:00,80.6,66.0,30.03,NW,315,2.0,6.9,61,0.00,,,0.00,WUHU216HW,2013-05-07 17:55:00,
2013-05-07 14:01:00,80.3,66.1,30.03,North,0,0.7,6.7,62,0.00,,,0.00,WUHU216HW,2013-05-07 18:01:00,
2013-05-07 14:06:00,80.5,66.2,30.02,WNW,293,5.8,6.7,62,0.00,,,0.00,WUHU216HW,2013-05-07 18:06:00,
2013-05-07 14:11:00,80.5,66.2,30.02,WSW,248,2.0,5.8,62,0.00,,,0.00,WUHU216HW,2013-05-07 18:11:00,
2013-05-07 14:16:00,81.0,66.3,30.02,NW,315,2.5,4.0,61,0.00,,,0.00,WUHU216HW,2013-05-07 18:16:00,
2013-05-07 14:21:00,81.4,67.1,30.02,WSW,248,2.5,4.0,62,0.00,,,0.00,WUHU216HW,2013-05-07 18:21:00,
2013-05-07 14:26:00,81.7,67.0,30.02,WSW,248,1.6,3.4,61,0.00,,,0.00,WUHU216HW,2013-05-07 18:26:00,
2013-05-07 14:31:00,82.1,67.2,30.02,NNW,338,0.9,3.4,61,0.00,,,0.00,WUHU216HW,2013-05-07 18:31:00,
2013-05-07 14:36:00,82.4,67.1,30.02,WSW,248,1.6,2.7,60,0.00,,,0.00,WUHU216HW,2013-05-07 18:36:00,
2013-05-07 14:41:00,82.6,67.3,30.01,WSW,248,1.8,3.6,60,0.00,,,0.00,WUHU216HW,2013-05-07 18:41:00,
2013-05-07 14:46:00,82.4,66.6,30.02,WNW,293,3.4,3.6,59,0.00,,,0.00,WUHU216HW,2013-05-07 18:46:00,
2013-05-07 14:52:00,82.3,67.0,30.02,West,270,1.8,3.4,60,0.00,,,0.00,WUHU216HW,2013-05-07 18:52:00,
2013-05-07 14:57:00,81.9,66.2,30.01,NW,315,4.5,4.5,59,0.00,,,0.00,WUHU216HW,2013-05-07 18:57:00,
2013-05-07 15:02:00,81.4,66.2,30.01,SE,135,2.7,5.4,60,0.00,,,0.00,WUHU216HW,2013-05-07 19:02:00,
2013-05-07 15:07:00,81.5,66.3,30.01,West,270,2.5,2.7,60,0.00,,,0.00,WUHU216HW,2013-05-07 19:07:00,
2013-05-07 15:12:00,81.7,66.5,30.01,WNW,293,0.7,2.9,60,0.00,,,0.00,WUHU216HW,2013-05-07 19:12:00,
2013-05-07 15:17:00,81.0,65.4,30.01,WNW,293,2.5,6.5,59,0.00,,,0.00,WUHU216HW,2013-05-07 19:17:00,
2013-05-07 15:22:00,80.3,65.2,30.01,WSW,248,6.9,6.9,60,0.00,,,0.00,WUHU216HW,2013-05-07 19:22:00,
2013-05-07 15:27:00,80.3,65.2,30.00,WNW,293,3.8,6.9,60,0.00,,,0.00,WUHU216HW,2013-05-07 19:27:00,
2013-05-07 15:32:00,80.3,65.6,30.00,North,0,5.6,5.6,61,0.00,,,0.00,WUHU216HW,2013-05-07 19:32:00,
2013-05-07 15:38:00,80.3,65.6,30.00,WNW,293,2.9,5.6,61,0.00,,,0.00,WUHU216HW,2013-05-07 19:38:00,
2013-05-07 15:43:00,80.5,65.8,30.00,SW,225,3.6,5.1,61,0.00,,,0.00,WUHU216HW,2013-05-07 19:43:00,
2013-05-07 15:48:00,80.5,65.8,29.99,NW,315,2.2,5.1,61,0.00,,,0.00,WUHU216HW,2013-05-07 19:48:00,
2013-05-07 15:53:00,80.5,65.3,29.99,WSW,248,3.4,11.6,60,0.00,,,0.00,WUHU216HW,2013-05-07 19:53:00,
2013-05-07 15:58:00,79.9,64.9,30.00,WNW,293,2.0,11.6,60,0.00,,,0.00,WUHU216HW,2013-05-07 19:58:00,
2013-05-07 16:03:00,80.1,65.5,30.00,West,270,3.1,4.9,61,0.00,,,0.00,WUHU216HW,2013-05-07 20:03:00,
2013-05-07 16:08:00,80.3,65.2,30.00,NNW,338,3.1,4.5,60,0.00,,,0.00,WUHU216HW,2013-05-07 20:08:00,
2013-05-07 16:13:00,79.9,64.4,30.00,SE,135,3.8,5.8,59,0.00,,,0.00,WUHU216HW,2013-05-07 20:13:00,
2013-05-07 16:19:00,79.7,64.7,30.00,WSW,248,4.3,8.3,60,0.00,,,0.00,WUHU216HW,2013-05-07 20:19:00,
2013-05-07 16:24:00,79.2,64.3,30.00,NNE,23,4.3,8.3,60,0.00,,,0.00,WUHU216HW,2013-05-07 20:24:00,
2013-05-07 16:29:00,79.2,64.6,30.00,WSW,248,0.9,7.2,61,0.00,,,0.00,WUHU216HW,2013-05-07 20:29:00,
2013-05-07 16:34:00,79.2,64.6,30.00,NW,315,3.1,7.2,61,0.00,,,0.00,WUHU216HW,2013-05-07 20:34:00,
2013-05-07 16:39:00,79.2,64.6,30.00,ENE,68,3.8,4.7,61,0.00,,,0.00,WUHU216HW,2013-05-07 20:39:00,
2013-05-07 16:44:00,79.4,64.8,30.00,WNW,293,4.5,5.1,61,0.00,,,0.00,WUHU216HW,2013-05-07 20:44:00,
2013-05-07 16:49:00,79.4,64.8,29.99,NW,315,4.3,5.4,61,0.00,,,0.00,WUHU216HW,2013-05-07 20:49:00,
2013-05-07 16:54:00,79.0,64.5,29.99,West,270,3.6,6.9,61,0.00,,,0.00,WUHU216HW,2013-05-07 20:54:00,
2013-05-07 16:59:00,78.8,64.8,29.99,NW,315,3.4,7.4,62,0.00,,,0.00,WUHU216HW,2013-05-07 20:59:00,
2013-05-07 17:04:00,79.2,64.6,30.00,ENE,68,0.9,7.4,61,0.00,,,0.00,WUHU216HW,2013-05-07 21:04:00,
2013-05-07 17:09:00,78.8,64.8,29.99,WNW,293,8.1,8.1,62,0.00,,,0.00,WUHU216HW,2013-05-07 21:09:00,
2013-05-07 17:14:00,78.8,64.8,30.00,West,270,0.9,8.1,62,0.00,,,0.00,WUHU216HW,2013-05-07 21:14:00,
2013-05-07 17:19:00,78.7,64.2,30.00,WNW,293,2.5,7.4,61,0.00,,,0.00,WUHU216HW,2013-05-07 21:19:00,
2013-05-07 17:25:00,78.3,63.8,30.00,SSW,203,2.7,6.9,61,0.00,,,0.00,WUHU216HW,2013-05-07 21:25:00,
2013-05-07 17:30:00,78.3,63.8,30.00,WSW,248,4.7,4.7,61,0.00,,,0.00,WUHU216HW,2013-05-07 21:30:00,
2013-05-07 17:35:00,78.1,64.1,30.00,NNE,23,1.8,6.5,62,0.00,,,0.00,WUHU216HW,2013-05-07 21:35:00,
2013-05-07 17:40:00,77.9,64.4,30.00,WNW,293,4.7,6.5,63,0.00,,,0.00,WUHU216HW,2013-05-07 21:40:00,
2013-05-07 17:45:00,77.9,64.4,30.00,NNW,338,6.9,8.5,63,0.00,,,0.00,WUHU216HW,2013-05-07 21:45:00,
2013-05-07 17:50:00,77.8,64.2,29.99,NNE,23,5.1,8.5,63,0.00,,,0.00,WUHU216HW,2013-05-07 21:50:00,
2013-05-07 17:55:00,77.6,64.0,29.99,West,270,2.5,6.3,63,0.00,,,0.00,WUHU216HW,2013-05-07 21:55:00,
2013-05-07 18:00:00,77.4,64.3,30.00,West,270,1.1,6.5,64,0.00,,,0.00,WUHU216HW,2013-05-07 22:00:00,
2013-05-07 18:06:00,77.4,63.8,30.00,NW,315,4.9,7.4,63,0.00,,,0.00,WUHU216HW,2013-05-07 22:06:00,
2013-05-07 18:11:00,77.4,64.3,30.00,WNW,293,3.1,7.4,64,0.00,,,0.00,WUHU216HW,2013-05-07 22:11:00,
2013-05-07 18:16:00,77.2,63.6,30.00,NNW,338,6.0,8.1,63,0.00,,,0.00,WUHU216HW,2013-05-07 22:16:00,
2013-05-07 18:21:00,77.0,63.5,29.99,West,270,5.1,8.1,63,0.00,,,0.00,WUHU216HW,2013-05-07 22:21:00,
2013-05-07 18:26:00,76.9,63.7,29.99,NW,315,2.9,5.4,64,0.00,,,0.00,WUHU216HW,2013-05-07 22:26:00,
2013-05-07 18:31:00,76.9,63.7,29.99,NNW,338,8.7,8.7,64,0.00,,,0.00,WUHU216HW,2013-05-07 22:31:00,
2013-05-07 18:36:00,76.7,63.5,29.99,NNW,338,3.6,8.7,64,0.00,,,0.00,WUHU216HW,2013-05-07 22:36:00,
2013-05-07 18:41:00,76.5,63.4,29.99,WNW,293,6.5,8.1,64,0.00,,,0.00,WUHU216HW,2013-05-07 22:41:00,
2013-05-07 18:47:00,76.3,63.6,30.00,NW,315,7.6,9.2,65,0.00,,,0.00,WUHU216HW,2013-05-07 22:47:00,
2013-05-07 18:52:00,76.0,63.4,30.00,West,270,4.0,9.2,65,0.00,,,0.00,WUHU216HW,2013-05-07 22:52:00,
2013-05-07 18:57:00,75.8,63.6,30.00,NW,315,2.9,8.7,66,0.00,,,0.00,WUHU216HW,2013-05-07 22:57:00,
2013-05-07 19:04:00,75.8,63.6,30.00,NW,315,5.6,8.7,66,0.00,,,0.00,WUHU216HW,2013-05-07 23:04:00,
2013-05-07 19:09:00,75.6,63.5,30.00,NNW,338,3.6,6.5,66,0.00,,,0.00,WUHU216HW,2013-05-07 23:09:00,
2013-05-07 19:14:00,75.6,63.5,30.00,NNW,338,6.9,6.9,66,0.00,,,0.00,WUHU216HW,2013-05-07 23:14:00,
2013-05-07 19:19:00,75.4,63.3,30.00,WNW,293,3.6,6.9,66,0.00,,,0.00,WUHU216HW,2013-05-07 23:19:00,
2013-05-07 19:24:00,75.2,63.1,30.00,West,270,3.6,5.1,66,0.00,,,0.00,WUHU216HW,2013-05-07 23:24:00,
2013-05-07 19:29:00,75.2,63.1,30.01,West,270,3.1,6.0,66,0.00,,,0.00,WUHU216HW,2013-05-07 23:29:00,
2013-05-07 19:31:00,75.1,62.9,30.01,WNW,293,4.3,6.0,66,0.00,,,0.00,WUHU216HW,2013-05-07 23:31:00,
2013-05-07 19:34:00,75.1,62.9,30.01,WNW,293,4.3,6.0,66,0.00,,,0.00,WUHU216HW,2013-05-07 23:34:00,
2013-05-07 19:41:00,75.1,62.9,30.01,WNW,293,4.3,4.3,66,0.00,,,0.00,WUHU216HW,2013-05-07 23:41:00,
2013-05-07 19:46:00,74.7,63.0,30.01,WNW,293,2.9,3.8,67,0.00,,,0.00,WUHU216HW,2013-05-07 23:46:00,
2013-05-07 19:51:00,74.5,63.3,30.00,WNW,293,5.6,5.6,68,0.00,,,0.00,WUHU216HW,2013-05-07 23:51:00,
2013-05-07 19:56:00,74.3,63.1,30.01,WSW,248,2.5,5.6,68,0.00,,,0.00,WUHU216HW,2013-05-07 23:56:00,
2013-05-07 20:01:00,74.2,62.9,30.01,WNW,293,3.4,8.1,68,0.00,,,0.00,WUHU216HW,2013-05-08 00:01:00,
2013-05-07 20:06:00,74.2,62.9,30.01,North,0,4.9,8.1,68,0.00,,,0.00,WUHU216HW,2013-05-08 00:06:00,
2013-05-07 20:11:00,74.0,62.8,30.01,West,270,3.4,4.9,68,0.00,,,0.00,WUHU216HW,2013-05-08 00:11:00,
2013-05-07 20:16:00,73.8,62.7,30.01,WNW,293,0.9,4.9,68,0.00,,,0.00,WUHU216HW,2013-05-08 00:16:00,
2013-05-07 20:22:00,73.8,63.1,30.02,NW,315,3.8,4.9,69,0.00,,,0.00,WUHU216HW,2013-05-08 00:22:00,
2013-05-07 20:27:00,73.8,63.1,30.02,South,180,1.1,3.8,69,0.00,,,0.00,WUHU216HW,2013-05-08 00:27:00,
2013-05-07 20:32:00,73.6,62.9,30.02,NW,315,1.6,4.0,69,0.00,,,0.00,WUHU216HW,2013-05-08 00:32:00,
2013-05-07 20:37:00,73.4,62.7,30.02,NNW,338,0.4,4.0,69,0.00,,,0.00,WUHU216HW,2013-05-08 00:37:00,
2013-05-07 20:42:00,73.4,62.7,30.02,WSW,248,0.2,2.9,69,0.00,,,0.00,WUHU216HW,2013-05-08 00:42:00,
2013-05-07 20:47:00,73.4,62.7,30.02,WNW,293,0.4,2.0,69,0.00,,,0.00,WUHU216HW,2013-05-08 00:47:00,
2013-05-07 20:52:00,73.4,63.2,30.02,West,270,1.1,4.5,70,0.00,,,0.00,WUHU216HW,2013-05-08 00:52:00,
2013-05-07 20:57:00,73.4,63.2,30.02,NW,315,2.2,4.5,70,0.00,,,0.00,WUHU216HW,2013-05-08 00:57:00,
2013-05-07 21:03:00,73.3,63.0,30.02,NW,315,1.3,2.9,70,0.00,,,0.00,WUHU216HW,2013-05-08 01:03:00,
2013-05-07 21:08:00,73.3,63.0,30.03,West,270,0.7,2.9,70,0.00,,,0.00,WUHU216HW,2013-05-08 01:08:00,
2013-05-07 21:13:00,73.1,62.8,30.03,NW,315,2.0,2.9,70,0.00,,,0.00,WUHU216HW,2013-05-08 01:13:00,
2013-05-07 21:18:00,73.1,62.8,30.03,WSW,248,2.7,2.9,70,0.00,,,0.00,WUHU216HW,2013-05-08 01:18:00,
2013-05-07 21:23:00,73.1,63.2,30.03,WSW,248,0.7,2.7,71,0.00,,,0.00,WUHU216HW,2013-05-08 01:23:00,
2013-05-07 21:28:00,73.1,63.2,30.03,NW,315,2.7,2.7,71,0.00,,,0.00,WUHU216HW,2013-05-08 01:28:00,
2013-05-07 21:33:00,72.9,63.0,30.03,NW,315,2.2,3.8,71,0.00,,,0.00,WUHU216HW,2013-05-08 01:33:00,
2013-05-07 21:39:00,72.9,63.0,30.03,WSW,248,1.8,3.8,71,0.00,,,0.00,WUHU216HW,2013-05-08 01:39:00,
2013-05-07 21:44:00,72.9,63.0,30.04,SW,225,0.2,2.9,71,0.00,,,0.00,WUHU216HW,2013-05-08 01:44:00,
2013-05-07 21:49:00,72.7,62.8,30.04,NW,315,0.4,2.9,71,0.00,,,0.00,WUHU216HW,2013-05-08 01:49:00,
2013-05-07 21:54:00,72.7,62.8,30.04,WNW,293,1.3,3.4,71,0.00,,,0.00,WUHU216HW,2013-05-08 01:54:00,
2013-05-07 21:59:00,72.7,62.8,30.04,WNW,293,2.2,3.4,71,0.00,,,0.00,WUHU216HW,2013-05-08 01:59:00,
2013-05-07 22:04:00,72.7,62.8,30.04,West,270,3.8,3.8,71,0.00,,,0.00,WUHU216HW,2013-05-08 02:04:00,
2013-05-07 22:09:00,72.5,62.6,30.04,NW,315,2.0,3.8,71,0.00,,,0.00,WUHU216HW,2013-05-08 02:09:00,
2013-05-07 22:14:00,72.5,62.6,30.04,NW,315,2.5,2.5,71,0.00,,,0.00,WUHU216HW,2013-05-08 02:14:00,
2013-05-07 22:19:00,72.5,62.6,30.04,WNW,293,3.6,3.6,71,0.00,,,0.00,WUHU216HW,2013-05-08 02:19:00,
2013-05-07 22:24:00,72.5,62.6,30.04,West,270,3.1,3.6,71,0.00,,,0.00,WUHU216HW,2013-05-08 02:24:00,
2013-05-07 22:29:00,72.5,62.6,30.04,NNW,338,1.3,3.1,71,0.00,,,0.00,WUHU216HW,2013-05-08 02:29:00,
2013-05-07 22:35:00,72.5,62.6,30.04,NW,315,1.6,2.7,71,0.00,,,0.00,WUHU216HW,2013-05-08 02:35:00,
2013-05-07 22:40:00,72.5,62.6,30.04,NNW,338,0.2,2.5,71,0.00,,,0.00,WUHU216HW,2013-05-08 02:40:00,
2013-05-07 22:45:00,72.4,62.5,30.05,NNW,338,0.0,2.5,71,0.00,,,0.00,WUHU216HW,2013-05-08 02:45:00,
2013-05-07 22:50:00,72.4,62.5,30.05,West,270,0.9,2.2,71,0.00,,,0.00,WUHU216HW,2013-05-08 02:50:00,
2013-05-07 22:55:00,72.4,62.8,30.05,West,270,0.0,1.3,72,0.00,,,0.00,WUHU216HW,2013-05-08 02:55:00,
2013-05-07 23:00:00,72.5,63.0,30.05,WNW,293,0.0,1.1,72,0.00,,,0.00,WUHU216HW,2013-05-08 03:00:00,
2013-05-07 23:05:00,72.5,63.0,30.05,WNW,293,0.2,0.4,72,0.00,,,0.00,WUHU216HW,2013-05-08 03:05:00,
2013-05-07 23:10:00,72.4,62.8,30.05,NW,315,0.0,0.7,72,0.00,,,0.00,WUHU216HW,2013-05-08 03:10:00,
2013-05-07 23:16:00,72.4,62.8,30.05,NW,315,0.2,0.7,72,0.00,,,0.00,WUHU216HW,2013-05-08 03:16:00,
2013-05-07 23:21:00,72.4,63.3,30.05,NW,315,0.0,0.4,73,0.00,,,0.00,WUHU216HW,2013-05-08 03:21:00,
2013-05-07 23:26:00,72.0,62.9,30.06,NNW,338,0.0,0.4,73,0.00,,,0.00,WUHU216HW,2013-05-08 03:26:00,
2013-05-07 23:31:00,72.0,62.5,30.06,ENE,68,0.4,0.7,72,0.00,,,0.00,WUHU216HW,2013-05-08 03:31:00,
2013-05-07 23:36:00,71.8,62.7,30.06,East,90,0.0,0.7,73,0.00,,,0.00,WUHU216HW,2013-05-08 03:36:00,
2013-05-07 23:41:00,71.6,62.6,30.06,ESE,113,0.7,0.7,73,0.00,,,0.00,WUHU216HW,2013-05-08 03:41:00,
2013-05-07 23:46:00,71.5,62.4,30.06,ESE,113,0.4,0.7,73,0.00,,,0.00,WUHU216HW,2013-05-08 03:46:00,
2013-05-07 23:51:00,71.3,62.2,30.06,ESE,113,0.2,0.9,73,0.00,,,0.00,WUHU216HW,2013-05-08 03:51:00,
2013-05-07 23:57:00,71.3,62.2,30.05,ESE,113,0.0,0.9,73,0.00,,,0.00,WUHU216HW,2013-05-08 03:57:00,